Archival Weather

Heathrow

Heathrow, United Kingdom (EGLL)

Report from: Thursday, June 23, 2022 1:20 PM BST
Current time: Tuesday, August 16, 2022 8:54 AM BST

Current weather
Weather history
Weather forecast

Temperature23.0°C (73.4°F)
Dew point11.0°C (51.8°F)
Winds 3 kts (1.5 m/s, 3.5 mph) Vrb
Winds variableWinds variable
Visibility6.2 mi. (10 km)
Clouds Sky clear
Altimeter29.80 in.Hg (1009 mB)
Relative humidity47 %
Density altitude1,259 ft. (384 m)
Remarks Fully automated report
Corrected report
No clouds detected
No significant changes expected in the next two hours
Flight conditions Visual Meteorological Conditions
Raw dataCOR EGLL 231220Z AUTO VRB03KT 9999 NCD 23/11 Q1009 NOSIG
An error has occurred. This application may no longer respond until reloaded. Reload 🗙